Time;durP1;ratioP1;P1;durP2;ratioP2;P2;SDS_P1;SDS_P2;PMS_P1;PMS_P2;Temp;Humidity;BMP_temperature;BMP_pressure;BME280_temperature;BME280_humidity;BME280_pressure;Samples;Min_cycle;Max_cycle;Signal;HPM_P1;HPM_P2
2022/08/01 00:00:33;;;;;;;5.87;3.77;;;18.30;81.00;;;;;;5085828;28;20568;-59
2022/08/01 00:02:58;;;;;;;7.50;4.30;;;18.30;81.60;;;;;;5080506;28;20256;-59
2022/08/01 00:05:24;;;;;;;4.93;4.43;;;18.30;82.20;;;;;;5086771;28;20182;-59
2022/08/01 00:07:50;;;;;;;6.57;4.50;;;18.20;82.80;;;;;;5083812;28;20178;-59
2022/08/01 00:10:17;;;;;;;6.07;4.20;;;18.20;83.50;;;;;;5080920;28;20314;-59
2022/08/01 00:12:43;;;;;;;4.80;4.30;;;18.10;84.50;;;;;;5075982;28;20651;-59
2022/08/01 00:15:12;;;;;;;8.93;4.60;;;18.10;85.70;;;;;;5086053;28;20434;-59
2022/08/01 00:17:37;;;;;;;4.23;3.87;;;18.00;86.60;;;;;;5087851;28;20458;-59
2022/08/01 00:20:05;;;;;;;5.67;4.17;;;18.00;87.80;;;;;;5084091;28;20972;-59
2022/08/01 00:22:33;;;;;;;5.70;4.10;;;17.90;88.20;;;;;;5085739;28;20233;-59
2022/08/01 00:24:58;;;;;;;4.40;4.00;;;17.90;88.80;;;;;;5078381;28;20436;-59
2022/08/01 00:27:24;;;;;;;5.20;4.70;;;17.90;89.80;;;;;;5089199;28;20494;-59
2022/08/01 00:29:50;;;;;;;7.47;4.20;;;17.90;90.10;;;;;;5086180;28;20216;-59
2022/08/01 00:32:15;;;;;;;5.00;4.23;;;17.80;90.40;;;;;;5088098;28;20207;-59
2022/08/01 00:34:41;;;;;;;5.83;4.20;;;17.80;90.60;;;;;;5085649;28;20182;-59
2022/08/01 00:37:07;;;;;;;4.60;4.20;;;17.80;91.00;;;;;;5079803;28;20674;-59
2022/08/01 00:39:33;;;;;;;4.50;4.00;;;17.80;90.90;;;;;;5078397;28;20549;-59
2022/08/01 00:41:59;;;;;;;5.77;4.10;;;17.70;90.80;;;;;;5086593;28;20209;-59
2022/08/01 00:44:26;;;;;;;20.50;12.93;;;17.60;90.90;;;;;;5093569;28;20169;-60
2022/08/01 00:46:51;;;;;;;16.33;10.23;;;17.60;91.20;;;;;;5089062;28;20420;-59
2022/08/01 00:49:17;;;;;;;16.13;11.43;;;17.50;91.70;;;;;;5081326;28;21467;-59
2022/08/01 00:51:43;;;;;;;17.17;13.20;;;17.40;92.20;;;;;;5087589;28;20217;-59
2022/08/01 00:54:09;;;;;;;19.93;13.70;;;17.40;92.30;;;;;;5079867;28;20266;-59
2022/08/01 00:56:34;;;;;;;14.53;11.17;;;17.30;92.80;;;;;;5087152;28;20178;-59
2022/08/01 00:59:00;;;;;;;10.73;8.77;;;17.30;93.20;;;;;;5077629;28;20225;-59
2022/08/01 01:01:26;;;;;;;8.47;7.60;;;17.30;93.10;;;;;;5082935;28;20210;-59
2022/08/01 01:03:52;;;;;;;8.20;5.90;;;17.30;93.10;;;;;;5085309;28;20635;-59
2022/08/01 01:06:42;;;;;;;5.67;5.17;;;17.20;93.20;;;;;;5077871;28;20170;-59
2022/08/01 01:09:26;;;;;;;5.27;4.77;;;17.20;93.90;;;;;;5088187;28;20997;-59
2022/08/01 01:11:58;;;;;;;8.40;5.30;;;17.30;93.70;;;;;;5082626;28;20449;-60
2022/08/01 01:14:38;;;;;;;6.80;5.20;;;17.30;93.70;;;;;;5076167;28;20462;-59
2022/08/01 01:17:07;;;;;;;7.90;5.40;;;17.20;93.80;;;;;;5082733;28;20437;-60
2022/08/01 01:19:38;;;;;;;4.77;4.20;;;17.20;94.00;;;;;;5074835;28;20436;-59
2022/08/01 01:22:41;;;;;;;5.57;4.60;;;17.20;94.10;;;;;;5082397;28;20466;-59
2022/08/01 01:25:24;;;;;;;7.83;4.90;;;17.10;94.50;;;;;;5084030;28;20450;-59
2022/08/01 01:28:02;;;;;;;5.90;5.30;;;17.10;94.90;;;;;;5087514;28;20407;-59
2022/08/01 01:30:30;;;;;;;8.20;5.03;;;17.10;94.90;;;;;;5082426;28;20470;-59
2022/08/01 01:33:00;;;;;;;8.27;6.00;;;17.00;95.00;;;;;;5080555;28;20423;-59
2022/08/01 01:35:32;;;;;;;6.30;5.70;;;17.00;95.40;;;;;;5081799;28;20936;-59
2022/08/01 01:38:07;;;;;;;5.07;4.50;;;17.00;95.60;;;;;;5074667;28;20432;-59
2022/08/01 01:40:33;;;;;;;5.10;4.30;;;16.90;95.90;;;;;;5088222;28;21119;-59
2022/08/01 01:43:00;;;;;;;4.80;4.40;;;17.00;95.80;;;;;;5085214;28;20501;-60
2022/08/01 01:45:26;;;;;;;4.33;3.93;;;17.00;96.00;;;;;;5091150;28;20644;-59
2022/08/01 01:47:54;;;;;;;4.60;3.70;;;16.90;95.80;;;;;;5087205;28;20412;-60
2022/08/01 01:50:24;;;;;;;4.53;4.03;;;17.00;95.20;;;;;;5083689;28;20537;-60
2022/08/01 01:52:50;;;;;;;5.83;3.93;;;17.00;95.30;;;;;;5075841;28;20451;-59
2022/08/01 01:55:20;;;;;;;4.27;3.87;;;17.00;95.10;;;;;;5084751;28;20428;-59
2022/08/01 01:57:47;;;;;;;4.67;4.27;;;16.90;95.00;;;;;;5083999;28;20801;-60
2022/08/01 02:00:15;;;;;;;4.43;4.03;;;16.90;95.20;;;;;;5087929;28;20431;-59
2022/08/01 02:02:42;;;;;;;5.17;4.67;;;16.90;95.30;;;;;;5084914;28;20518;-59
2022/08/01 02:05:10;;;;;;;6.33;4.53;;;16.90;95.40;;;;;;5073467;28;20420;-59
2022/08/01 02:07:38;;;;;;;4.63;4.10;;;16.80;95.50;;;;;;5084290;28;20950;-59
2022/08/01 02:10:05;;;;;;;6.43;4.70;;;16.80;95.80;;;;;;5084098;28;20432;-59
2022/08/01 02:12:34;;;;;;;4.93;4.40;;;16.70;96.60;;;;;;5073074;28;20511;-59
2022/08/01 02:15:01;;;;;;;5.93;3.83;;;16.70;96.80;;;;;;5083239;28;20450;-59
2022/08/01 02:17:28;;;;;;;4.40;3.60;;;16.70;96.80;;;;;;5080186;28;20431;-59
2022/08/01 02:19:54;;;;;;;5.00;3.73;;;16.70;97.00;;;;;;5082941;28;20447;-59
2022/08/01 02:22:28;;;;;;;6.60;4.00;;;16.70;96.90;;;;;;5078207;28;20525;-58
2022/08/01 02:25:26;;;;;;;4.83;4.07;;;16.70;96.80;;;;;;5085116;28;20454;-59
2022/08/01 02:28:04;;;;;;;6.00;4.13;;;16.70;96.90;;;;;;5067846;28;20420;-59
2022/08/01 02:30:36;;;;;;;4.90;4.30;;;16.70;96.90;;;;;;5084510;28;20443;-59
2022/08/01 02:33:17;;;;;;;5.83;4.80;;;16.60;96.60;;;;;;5081418;28;20795;-58
2022/08/01 02:35:48;;;;;;;8.90;4.83;;;16.50;96.80;;;;;;5086182;28;20484;-59
2022/08/01 02:38:15;;;;;;;5.10;4.17;;;16.40;97.20;;;;;;5082194;28;20431;-59
2022/08/01 02:40:45;;;;;;;6.80;5.33;;;16.30;97.90;;;;;;5077070;28;20473;-60
2022/08/01 02:43:13;;;;;;;9.50;5.17;;;16.20;98.60;;;;;;5082132;28;20408;-59
2022/08/01 02:45:43;;;;;;;5.70;5.20;;;16.10;98.90;;;;;;5089393;28;20431;-59
2022/08/01 02:48:13;;;;;;;6.37;5.23;;;16.00;99.40;;;;;;5081922;28;20477;-59
2022/08/01 02:50:42;;;;;;;5.70;5.10;;;16.00;99.90;;;;;;5080568;28;20504;-59
2022/08/01 02:53:10;;;;;;;6.90;4.80;;;15.90;99.90;;;;;;5084890;28;20477;-59
2022/08/01 02:55:38;;;;;;;5.20;4.73;;;15.90;99.90;;;;;;5087173;28;20948;-59
2022/08/01 02:58:06;;;;;;;5.47;4.70;;;15.90;99.90;;;;;;5080137;28;20443;-59
2022/08/01 03:00:32;;;;;;;4.57;4.17;;;15.80;99.90;;;;;;5088987;28;20504;-59
2022/08/01 03:03:01;;;;;;;5.20;4.63;;;15.80;99.90;;;;;;5085475;28;20455;-60
2022/08/01 03:05:28;;;;;;;5.07;4.57;;;15.80;99.90;;;;;;5083655;28;20428;-59
2022/08/01 03:07:55;;;;;;;6.73;5.50;;;15.80;99.90;;;;;;5087959;28;20424;-59
2022/08/01 03:10:22;;;;;;;7.10;5.27;;;15.80;99.90;;;;;;5091213;28;20438;-59
2022/08/01 03:12:49;;;;;;;5.23;4.80;;;15.80;99.90;;;;;;5081896;28;20431;-59
2022/08/01 03:15:16;;;;;;;5.57;4.90;;;15.80;99.90;;;;;;5081928;28;20487;-59
2022/08/01 03:17:45;;;;;;;5.13;4.63;;;15.80;99.90;;;;;;5086337;28;20432;-59
2022/08/01 03:20:14;;;;;;;6.30;5.03;;;15.80;99.90;;;;;;5083387;28;20463;-59
2022/08/01 03:22:43;;;;;;;5.30;4.90;;;15.80;99.90;;;;;;5084582;28;20904;-59
2022/08/01 03:25:10;;;;;;;6.17;4.47;;;15.80;99.90;;;;;;5091066;28;20392;-58
2022/08/01 03:27:37;;;;;;;8.23;4.87;;;15.70;99.90;;;;;;5086927;28;20459;-58
2022/08/01 03:30:04;;;;;;;6.40;4.60;;;15.70;99.90;;;;;;5070635;28;20835;-59
2022/08/01 03:32:31;;;;;;;5.37;4.87;;;15.60;99.90;;;;;;5071517;28;20507;-59
2022/08/01 03:34:57;;;;;;;5.73;5.10;;;15.50;99.90;;;;;;5074565;28;20440;-59
2022/08/01 03:37:25;;;;;;;4.70;4.20;;;15.50;99.90;;;;;;5080835;28;20456;-60
2022/08/01 03:40:03;;;;;;;5.57;5.07;;;15.40;99.90;;;;;;5088572;28;20403;-60
2022/08/01 03:42:38;;;;;;;4.87;4.37;;;15.40;99.90;;;;;;5082333;28;20492;-61
2022/08/01 03:45:10;;;;;;;7.10;4.60;;;15.40;99.90;;;;;;5078936;28;20435;-60
2022/08/01 03:47:36;;;;;;;7.10;5.00;;;15.40;99.90;;;;;;5079328;28;20428;-59
2022/08/01 03:50:08;;;;;;;6.07;4.90;;;15.40;99.90;;;;;;5074264;28;20439;-59
2022/08/01 03:52:37;;;;;;;9.83;5.67;;;15.50;99.90;;;;;;5069562;28;20504;-57
2022/08/01 03:55:06;;;;;;;5.70;5.10;;;15.40;99.90;;;;;;5075184;28;20436;-57
2022/08/01 03:57:33;;;;;;;5.70;4.93;;;15.50;99.90;;;;;;5071838;28;20436;-57
2022/08/01 04:00:00;;;;;;;6.40;5.27;;;15.40;99.90;;;;;;5073694;28;20512;-57
2022/08/01 04:02:29;;;;;;;5.57;4.97;;;15.50;99.90;;;;;;5077039;28;20452;-57
2022/08/01 04:04:55;;;;;;;6.23;5.10;;;15.50;99.90;;;;;;5074568;28;20948;-58
2022/08/01 04:07:23;;;;;;;5.00;4.50;;;15.50;99.90;;;;;;5084327;28;20419;-57
2022/08/01 04:09:49;;;;;;;6.90;5.30;;;15.40;99.90;;;;;;5078447;28;20469;-58
2022/08/01 04:12:14;;;;;;;5.50;5.00;;;15.40;99.90;;;;;;5083769;28;20425;-59
2022/08/01 04:14:40;;;;;;;5.40;4.90;;;15.40;99.90;;;;;;5064842;28;20201;-58
2022/08/01 04:17:05;;;;;;;5.60;4.97;;;15.50;99.90;;;;;;5074140;28;20701;-58
2022/08/01 04:19:31;;;;;;;6.10;4.80;;;15.40;99.90;;;;;;5074973;28;20253;-57
2022/08/01 04:21:57;;;;;;;4.63;4.23;;;15.50;99.90;;;;;;5074778;28;20193;-60
2022/08/01 04:24:25;;;;;;;7.07;4.87;;;15.40;99.90;;;;;;5077608;28;20670;-60
2022/08/01 04:26:52;;;;;;;11.40;5.00;;;15.40;99.90;;;;;;5077659;28;20419;-60
2022/08/01 04:29:20;;;;;;;8.20;5.00;;;15.50;99.90;;;;;;5076040;28;20784;-60
2022/08/01 04:31:47;;;;;;;4.90;4.43;;;15.50;99.90;;;;;;5070608;28;20444;-60
2022/08/01 04:34:17;;;;;;;10.60;5.30;;;15.50;99.90;;;;;;5076333;28;20415;-60
2022/08/01 04:36:44;;;;;;;7.33;4.50;;;15.50;99.90;;;;;;5072543;28;20506;-60
2022/08/01 04:39:10;;;;;;;5.87;4.80;;;15.50;99.90;;;;;;5085067;28;20941;-60
2022/08/01 04:41:38;;;;;;;6.67;5.27;;;15.50;99.90;;;;;;5077642;28;20496;-60
2022/08/01 04:44:04;;;;;;;7.50;5.50;;;15.50;99.90;;;;;;5068797;28;20997;-61
2022/08/01 04:46:33;;;;;;;9.50;6.67;;;15.50;99.90;;;;;;5085109;28;20440;-60
2022/08/01 04:49:00;;;;;;;6.70;6.00;;;15.60;99.90;;;;;;5080820;28;20455;-60
2022/08/01 04:51:26;;;;;;;6.30;5.73;;;15.60;99.90;;;;;;5082013;28;20453;-60
2022/08/01 04:53:51;;;;;;;5.50;5.00;;;15.60;99.90;;;;;;5082610;28;20471;-60
2022/08/01 04:56:18;;;;;;;13.90;5.23;;;15.60;99.90;;;;;;5087426;28;20182;-61
2022/08/01 04:58:44;;;;;;;12.70;5.67;;;15.70;99.90;;;;;;5070818;28;20186;-60
2022/08/01 05:01:11;;;;;;;7.50;6.47;;;15.70;99.90;;;;;;5072110;28;20526;-60
2022/08/01 05:03:37;;;;;;;7.20;4.90;;;15.80;99.90;;;;;;5080147;28;20185;-61
2022/08/01 05:06:03;;;;;;;7.47;5.17;;;15.90;99.90;;;;;;5080282;28;20424;-60
2022/08/01 05:08:29;;;;;;;7.10;5.20;;;15.90;99.90;;;;;;5083347;28;20435;-60
2022/08/01 05:10:55;;;;;;;5.83;4.63;;;16.00;99.90;;;;;;5073726;28;20216;-60
2022/08/01 05:13:20;;;;;;;5.77;4.77;;;16.10;99.90;;;;;;5082402;28;20924;-60
2022/08/01 05:15:46;;;;;;;8.87;4.40;;;16.20;99.90;;;;;;5077367;28;20174;-60
2022/08/01 05:18:12;;;;;;;8.27;5.23;;;16.20;99.90;;;;;;5079115;28;20190;-61
2022/08/01 05:20:38;;;;;;;5.03;4.53;;;16.30;99.90;;;;;;5073947;28;20253;-60
2022/08/01 05:23:06;;;;;;;7.20;4.70;;;16.40;99.90;;;;;;5078400;28;20182;-61
2022/08/01 05:25:33;;;;;;;5.60;4.53;;;16.50;99.90;;;;;;5074409;28;20776;-61
2022/08/01 05:27:58;;;;;;;4.70;4.30;;;16.60;99.90;;;;;;5068089;28;20447;-61
2022/08/01 05:30:25;;;;;;;13.10;6.23;;;16.70;99.90;;;;;;5077936;28;20829;-60
2022/08/01 05:32:50;;;;;;;5.37;4.70;;;16.70;99.90;;;;;;5078947;28;20334;-61
2022/08/01 05:35:16;;;;;;;5.03;4.60;;;16.80;99.80;;;;;;5081244;28;20506;-61
2022/08/01 05:37:41;;;;;;;11.60;5.40;;;16.90;99.30;;;;;;5087824;28;20188;-60
2022/08/01 05:40:08;;;;;;;9.00;4.97;;;17.00;99.10;;;;;;5086861;28;20198;-61
2022/08/01 05:42:33;;;;;;;14.87;5.40;;;17.00;98.50;;;;;;5069468;28;20202;-60
2022/08/01 05:44:59;;;;;;;9.70;5.37;;;17.10;98.20;;;;;;5071612;28;20953;-61
2022/08/01 05:47:25;;;;;;;7.70;4.73;;;17.20;97.70;;;;;;5077298;28;20215;-60
2022/08/01 05:49:50;;;;;;;8.27;5.37;;;17.20;97.20;;;;;;5085870;28;20655;-60
2022/08/01 05:52:16;;;;;;;10.23;5.57;;;17.30;97.30;;;;;;5085770;28;20173;-60
2022/08/01 05:54:41;;;;;;;10.53;5.93;;;17.40;97.40;;;;;;5074758;28;20737;-61
2022/08/01 05:57:07;;;;;;;6.13;5.07;;;17.50;96.20;;;;;;5084643;28;20169;-61
2022/08/01 05:59:33;;;;;;;11.37;5.07;;;17.60;96.20;;;;;;5086800;28;20174;-60
2022/08/01 06:01:58;;;;;;;6.40;4.87;;;17.80;96.00;;;;;;5078882;28;20206;-60
2022/08/01 06:04:24;;;;;;;11.80;5.67;;;17.80;95.20;;;;;;5067891;28;20244;-61
2022/08/01 06:06:50;;;;;;;13.80;5.23;;;17.90;94.90;;;;;;5072243;28;20182;-60
2022/08/01 06:09:15;;;;;;;8.77;5.50;;;18.00;94.30;;;;;;5083968;28;20165;-60
2022/08/01 06:11:41;;;;;;;9.73;5.87;;;18.00;93.60;;;;;;5080212;28;20209;-60
2022/08/01 06:14:07;;;;;;;6.10;5.23;;;18.10;92.80;;;;;;5075446;28;20262;-60
2022/08/01 06:16:32;;;;;;;9.70;5.07;;;18.20;92.20;;;;;;5081759;28;20205;-60
2022/08/01 06:18:58;;;;;;;14.57;5.57;;;18.30;91.30;;;;;;5080749;28;20181;-61
2022/08/01 06:21:24;;;;;;;14.03;5.67;;;18.40;91.40;;;;;;5072475;28;20254;-60
2022/08/01 06:23:50;;;;;;;8.17;5.00;;;18.50;90.50;;;;;;5086817;28;20427;-60
2022/08/01 06:26:19;;;;;;;11.47;5.27;;;18.60;90.60;;;;;;5073824;28;20181;-60
2022/08/01 06:28:44;;;;;;;8.20;4.97;;;18.80;90.20;;;;;;5079133;28;20174;-60
2022/08/01 06:31:12;;;;;;;4.70;4.27;;;18.90;88.60;;;;;;5071523;28;20818;-61
2022/08/01 06:33:38;;;;;;;11.60;5.10;;;19.00;87.60;;;;;;5085331;28;20181;-60
2022/08/01 06:36:04;;;;;;;5.07;4.53;;;19.10;86.00;;;;;;5085553;28;20425;-61
2022/08/01 06:38:29;;;;;;;4.70;3.70;;;19.20;85.90;;;;;;5081471;28;20220;-61
2022/08/01 06:40:55;;;;;;;10.13;4.70;;;19.40;85.20;;;;;;5081012;28;20205;-60
2022/08/01 06:43:21;;;;;;;6.80;4.50;;;19.60;81.90;;;;;;5086323;28;20178;-61
2022/08/01 06:45:46;;;;;;;6.30;4.53;;;19.70;81.50;;;;;;5072925;28;20656;-61
2022/08/01 06:48:12;;;;;;;9.33;4.50;;;19.80;81.20;;;;;;5075620;28;20785;-61
2022/08/01 06:50:38;;;;;;;8.20;4.13;;;20.00;80.00;;;;;;5075252;28;20194;-60
2022/08/01 06:53:04;;;;;;;5.57;3.97;;;20.20;76.80;;;;;;5077694;28;20174;-61
2022/08/01 06:55:29;;;;;;;5.20;4.40;;;20.30;75.80;;;;;;5084571;28;20300;-60
2022/08/01 06:57:55;;;;;;;7.80;5.10;;;20.40;74.20;;;;;;5071594;28;20226;-60
2022/08/01 07:00:22;;;;;;;6.63;4.93;;;20.50;71.70;;;;;;5080828;28;20204;-60
2022/08/01 07:02:49;;;;;;;9.43;5.27;;;20.60;71.20;;;;;;5082926;28;20267;-60
2022/08/01 07:05:15;;;;;;;6.53;4.50;;;20.60;70.10;;;;;;5074031;28;20424;-60
2022/08/01 07:07:41;;;;;;;5.30;4.73;;;20.60;71.60;;;;;;5082935;28;20430;-60
2022/08/01 07:10:08;;;;;;;4.67;4.10;;;20.80;71.80;;;;;;5072940;28;20210;-60
2022/08/01 07:12:36;;;;;;;6.93;4.73;;;20.90;70.60;;;;;;5076428;28;20178;-60
2022/08/01 07:15:03;;;;;;;7.27;4.93;;;21.00;70.00;;;;;;5071943;28;20516;-59
2022/08/01 07:17:29;;;;;;;6.43;4.90;;;21.20;69.80;;;;;;5074006;28;20433;-60
2022/08/01 07:19:54;;;;;;;7.80;5.23;;;21.40;67.30;;;;;;5086256;28;20443;-60
2022/08/01 07:22:20;;;;;;;9.43;5.73;;;21.50;67.30;;;;;;5077668;28;20691;-60
2022/08/01 07:24:46;;;;;;;8.73;4.67;;;21.60;66.20;;;;;;5085211;28;20157;-60
2022/08/01 07:27:12;;;;;;;5.30;4.63;;;21.80;65.30;;;;;;5080123;28;20969;-59
2022/08/01 07:29:38;;;;;;;5.70;5.10;;;21.80;65.30;;;;;;5079935;28;20228;-60
2022/08/01 07:32:04;;;;;;;6.30;4.90;;;22.00;64.50;;;;;;5080522;28;20205;-60
2022/08/01 07:34:29;;;;;;;6.50;5.20;;;22.10;63.10;;;;;;5087758;28;20173;-59
2022/08/01 07:36:55;;;;;;;5.30;4.60;;;22.20;63.30;;;;;;5082423;28;20436;-59
2022/08/01 07:39:21;;;;;;;8.57;5.40;;;22.40;63.70;;;;;;5082066;28;20269;-60
2022/08/01 07:41:47;;;;;;;5.53;4.70;;;22.50;62.90;;;;;;5073859;28;20317;-60
2022/08/01 07:44:12;;;;;;;6.80;4.73;;;22.60;62.10;;;;;;5080001;28;20546;-60
2022/08/01 07:46:38;;;;;;;6.37;4.63;;;22.80;61.60;;;;;;5074032;28;20421;-59
2022/08/01 07:49:03;;;;;;;6.50;5.10;;;22.90;60.80;;;;;;5073307;28;20185;-59
2022/08/01 07:51:29;;;;;;;5.77;5.17;;;23.00;60.50;;;;;;5076917;28;20287;-59
2022/08/01 07:53:55;;;;;;;5.60;4.60;;;23.10;60.60;;;;;;5077446;28;20309;-60
2022/08/01 07:56:23;;;;;;;6.23;4.70;;;23.20;59.80;;;;;;5082067;28;20189;-60
2022/08/01 07:58:49;;;;;;;7.10;4.13;;;23.40;59.30;;;;;;5086021;28;20179;-60
2022/08/01 08:01:15;;;;;;;6.00;4.47;;;23.50;58.90;;;;;;5079465;28;21017;-60
2022/08/01 08:03:41;;;;;;;5.27;4.53;;;23.50;58.20;;;;;;5071751;28;20569;-60
2022/08/01 08:06:06;;;;;;;6.30;4.80;;;23.60;58.10;;;;;;5075177;28;20681;-60
2022/08/01 08:08:34;;;;;;;5.20;4.60;;;23.60;57.80;;;;;;5082453;28;20670;-60
2022/08/01 08:11:00;;;;;;;6.63;4.70;;;23.60;57.10;;;;;;5088143;28;20192;-60
2022/08/01 08:13:25;;;;;;;4.93;4.50;;;23.60;57.50;;;;;;5070018;28;20946;-60
2022/08/01 08:15:51;;;;;;;7.23;4.20;;;23.60;57.50;;;;;;5082244;28;20178;-60
2022/08/01 08:18:17;;;;;;;5.77;4.73;;;23.70;57.50;;;;;;5072737;28;20716;-61
2022/08/01 08:20:43;;;;;;;4.20;3.73;;;23.70;57.40;;;;;;5078620;28;20201;-62
2022/08/01 08:25:53;;;;;;;6.00;4.77;;;23.90;56.80;;;;;;5073137;28;20204;-60
2022/08/01 08:28:18;;;;;;;4.00;3.60;;;24.00;56.90;;;;;;5082772;28;20447;-61
2022/08/01 08:30:44;;;;;;;5.70;4.00;;;24.10;56.80;;;;;;5084566;28;20206;-61
2022/08/01 08:33:10;;;;;;;8.57;5.70;;;24.10;56.70;;;;;;5075262;28;20170;-61
2022/08/01 08:35:35;;;;;;;5.27;4.60;;;24.10;56.50;;;;;;5075027;28;20185;-61
2022/08/01 08:38:01;;;;;;;4.53;3.90;;;24.20;56.30;;;;;;5080489;28;20712;-61
2022/08/01 08:40:30;;;;;;;5.93;4.40;;;24.30;55.50;;;;;;5089566;28;20823;-60
2022/08/01 08:42:59;;;;;;;6.13;4.57;;;24.30;55.00;;;;;;5083392;28;21370;-60
2022/08/01 08:45:26;;;;;;;5.23;4.00;;;24.40;54.70;;;;;;5081289;28;20500;-61
2022/08/01 08:47:53;;;;;;;6.73;4.40;;;24.40;54.90;;;;;;5083526;28;20476;-60
2022/08/01 08:50:20;;;;;;;5.40;3.80;;;24.50;54.80;;;;;;5080524;28;20450;-61
2022/08/01 08:52:47;;;;;;;5.67;4.30;;;24.70;54.90;;;;;;5081922;28;20751;-60
2022/08/01 08:55:16;;;;;;;9.43;4.03;;;24.90;54.20;;;;;;5078632;28;20490;-61
2022/08/01 08:57:44;;;;;;;4.37;3.97;;;25.10;53.60;;;;;;5077889;28;20520;-60
2022/08/01 09:00:11;;;;;;;8.23;4.23;;;25.10;51.80;;;;;;5070968;28;20514;-60
2022/08/01 09:02:42;;;;;;;5.57;3.90;;;24.90;51.70;;;;;;5076719;28;20597;-60
2022/08/01 09:05:09;;;;;;;5.80;4.23;;;24.80;52.40;;;;;;5073862;28;20434;-60
2022/08/01 09:07:34;;;;;;;4.80;3.67;;;24.80;52.70;;;;;;5076450;28;20523;-60
2022/08/01 09:10:00;;;;;;;5.83;3.50;;;24.80;52.90;;;;;;5081433;28;20543;-60
2022/08/01 09:12:26;;;;;;;4.60;3.50;;;24.80;53.10;;;;;;5082578;28;20672;-61
2022/08/01 09:14:53;;;;;;;3.43;3.13;;;25.00;52.30;;;;;;5080720;28;20638;-60
2022/08/01 09:17:19;;;;;;;4.40;3.37;;;25.10;51.50;;;;;;5072427;28;20202;-60
2022/08/01 09:19:51;;;;;;;4.67;3.50;;;25.20;51.60;;;;;;5077309;28;20936;-60
2022/08/01 09:22:22;;;;;;;4.73;3.57;;;25.20;51.00;;;;;;5076523;28;20454;-61
2022/08/01 09:25:04;;;;;;;3.60;3.30;;;25.10;51.20;;;;;;5074070;28;20442;-60
2022/08/01 09:27:31;;;;;;;4.10;3.70;;;24.90;50.90;;;;;;5072092;28;20511;-60
2022/08/01 09:30:16;;;;;;;3.43;3.13;;;24.70;50.80;;;;;;5071233;28;20423;-61
2022/08/01 09:33:02;;;;;;;3.40;3.10;;;24.70;51.20;;;;;;5083192;28;20424;-60
2022/08/01 09:35:36;;;;;;;3.47;3.10;;;24.70;51.00;;;;;;5082001;28;20858;-60
2022/08/01 09:38:22;;;;;;;3.63;3.33;;;24.70;50.80;;;;;;5074251;28;20514;-60
2022/08/01 09:40:50;;;;;;;3.53;3.23;;;24.60;51.10;;;;;;5085484;28;20433;-61
2022/08/01 09:43:17;;;;;;;4.30;3.40;;;24.50;51.20;;;;;;5067602;28;20425;-61
2022/08/01 09:45:43;;;;;;;5.40;3.10;;;24.70;51.40;;;;;;5082684;28;20612;-60
2022/08/01 09:48:09;;;;;;;8.90;3.70;;;24.80;51.60;;;;;;5075095;28;20952;-61
2022/08/01 09:50:43;;;;;;;3.67;3.33;;;25.00;51.40;;;;;;5083484;28;20754;-61
2022/08/01 09:53:12;;;;;;;5.13;3.40;;;25.00;51.50;;;;;;5079284;28;20507;-61
2022/08/01 09:55:39;;;;;;;8.23;4.47;;;25.00;51.60;;;;;;5085054;28;20427;-60
2022/08/01 09:58:05;;;;;;;4.80;3.17;;;25.00;51.40;;;;;;5077488;28;20438;-61
2022/08/01 10:00:32;;;;;;;3.60;3.30;;;25.10;51.10;;;;;;5082092;28;20504;-61
2022/08/01 10:02:58;;;;;;;2.90;2.60;;;25.40;50.20;;;;;;5076105;28;20548;-61
2022/08/01 10:05:34;;;;;;;3.40;3.00;;;25.70;50.20;;;;;;5085098;28;20423;-61
2022/08/01 10:08:04;;;;;;;2.97;2.67;;;25.90;49.50;;;;;;5075580;28;20230;-61
2022/08/01 10:10:31;;;;;;;4.20;2.37;;;26.00;47.70;;;;;;5079049;28;20447;-61
2022/08/01 10:12:58;;;;;;;3.43;2.67;;;25.90;47.30;;;;;;5083128;28;20400;-61
2022/08/01 10:15:26;;;;;;;2.53;2.33;;;25.90;47.70;;;;;;5075441;28;20437;-61
2022/08/01 10:17:58;;;;;;;3.20;2.63;;;26.00;47.40;;;;;;5078831;28;21008;-61
2022/08/01 10:20:27;;;;;;;5.47;2.90;;;26.10;47.20;;;;;;5085847;28;20922;-57
2022/08/01 10:22:54;;;;;;;3.43;2.90;;;26.40;46.40;;;;;;5080117;28;20459;-57
2022/08/01 10:25:21;;;;;;;3.87;2.90;;;26.60;46.10;;;;;;5083952;28;20434;-56
2022/08/01 10:27:54;;;;;;;5.20;3.30;;;26.90;46.70;;;;;;5083815;28;20430;-56
2022/08/01 10:30:20;;;;;;;3.63;2.70;;;27.20;44.40;;;;;;5084329;28;20442;-56
2022/08/01 10:32:47;;;;;;;2.57;2.37;;;27.30;44.10;;;;;;5086785;28;20480;-56
2022/08/01 10:35:16;;;;;;;3.00;2.70;;;27.30;44.10;;;;;;5075810;28;20465;-59
2022/08/01 10:37:44;;;;;;;4.53;2.50;;;27.20;42.80;;;;;;5070020;28;20457;-60
2022/08/01 10:40:14;;;;;;;3.30;2.03;;;27.30;43.70;;;;;;5074271;28;20462;-60
2022/08/01 10:42:45;;;;;;;2.40;2.20;;;27.40;43.60;;;;;;5073228;28;20197;-60
2022/08/01 10:45:14;;;;;;;2.80;2.43;;;27.70;44.00;;;;;;5074037;28;20178;-60
2022/08/01 10:48:24;;;;;;;4.73;2.13;;;28.00;43.10;;;;;;5075517;28;20170;-59
2022/08/01 10:50:52;;;;;;;3.33;2.30;;;28.10;42.50;;;;;;5074158;28;20201;-60
2022/08/01 10:53:23;;;;;;;3.00;2.50;;;27.90;42.60;;;;;;5075413;28;20170;-59
2022/08/01 10:56:03;;;;;;;2.73;2.50;;;27.70;42.70;;;;;;5074727;28;20170;-60
2022/08/01 10:58:41;;;;;;;2.97;2.10;;;27.40;43.40;;;;;;5078427;28;20280;-60
2022/08/01 11:01:26;;;;;;;2.80;2.60;;;27.20;43.70;;;;;;5074847;28;20858;-60
2022/08/01 11:03:55;;;;;;;4.70;2.43;;;27.20;44.70;;;;;;5068847;28;20173;-61
2022/08/01 11:06:25;;;;;;;3.07;2.77;;;27.20;43.10;;;;;;5078102;28;20170;-60
2022/08/01 11:08:53;;;;;;;6.73;3.13;;;26.90;43.30;;;;;;5077542;28;20383;-59
2022/08/01 11:11:20;;;;;;;6.00;2.60;;;26.80;43.70;;;;;;5077516;28;20561;-60
2022/08/01 11:13:58;;;;;;;4.27;2.50;;;26.70;43.90;;;;;;5078709;28;20182;-60
2022/08/01 11:16:35;;;;;;;4.80;2.50;;;26.60;44.30;;;;;;5074571;28;20212;-61
2022/08/01 11:19:05;;;;;;;3.80;2.83;;;26.70;44.80;;;;;;5070141;28;20220;-61
2022/08/01 11:21:53;;;;;;;3.37;2.70;;;27.10;44.40;;;;;;5078253;28;20234;-60
2022/08/01 11:24:47;;;;;;;3.17;2.40;;;27.30;43.60;;;;;;5073567;28;20239;-60
2022/08/01 11:27:22;;;;;;;6.10;2.90;;;27.60;42.80;;;;;;5079770;28;20189;-60
2022/08/01 11:30:21;;;;;;;4.90;2.67;;;28.00;42.40;;;;;;5074841;28;20528;-60
2022/08/01 11:32:50;;;;;;;7.87;3.20;;;28.00;40.80;;;;;;5056794;28;20178;-62
2022/08/01 11:35:17;;;;;;;2.50;2.27;;;27.80;40.10;;;;;;5071137;28;20185;-63
2022/08/01 11:37:43;;;;;;;3.37;3.03;;;27.60;41.40;;;;;;5073662;28;20270;-63
2022/08/01 11:40:28;;;;;;;3.57;2.50;;;27.40;42.50;;;;;;5083111;28;20197;-62
2022/08/01 11:43:16;;;;;;;3.33;2.57;;;27.20;43.10;;;;;;5083084;28;20186;-62
2022/08/01 11:45:52;;;;;;;3.77;2.57;;;27.00;43.60;;;;;;5065216;28;20186;-62
2022/08/01 11:48:26;;;;;;;2.50;2.30;;;26.80;43.80;;;;;;5083213;28;20196;-62
2022/08/01 11:50:52;;;;;;;3.27;2.83;;;26.70;44.50;;;;;;5076598;28;20198;-62
2022/08/01 11:53:19;;;;;;;2.00;1.80;;;26.70;44.40;;;;;;5080992;28;20174;-62
2022/08/01 11:55:51;;;;;;;2.87;2.53;;;26.70;44.60;;;;;;5069256;28;20173;-62
2022/08/01 11:58:24;;;;;;;3.00;2.70;;;26.60;44.40;;;;;;5081104;28;20204;-62
2022/08/01 12:00:54;;;;;;;5.53;2.23;;;26.60;44.60;;;;;;5044451;28;1089821;-62
2022/08/01 12:03:28;;;;;;;2.33;2.13;;;26.60;44.80;;;;;;5087152;28;20729;-62
2022/08/01 12:05:55;;;;;;;4.60;2.43;;;26.50;44.40;;;;;;5088182;28;20185;-63
2022/08/01 12:08:39;;;;;;;2.80;2.60;;;26.40;44.20;;;;;;5073735;28;20171;-62
2022/08/01 12:11:05;;;;;;;3.53;2.43;;;26.30;44.50;;;;;;5070474;28;20842;-62
2022/08/01 12:13:44;;;;;;;3.83;2.77;;;26.30;44.80;;;;;;5076371;28;20597;-62
2022/08/01 12:16:10;;;;;;;2.70;2.50;;;26.20;44.50;;;;;;5085040;28;20168;-62
2022/08/01 12:18:41;;;;;;;2.50;2.30;;;26.20;44.60;;;;;;5083805;28;20833;-62
2022/08/01 12:21:07;;;;;;;2.50;2.30;;;26.20;44.40;;;;;;5068363;28;20623;-62
2022/08/01 12:23:32;;;;;;;2.60;2.40;;;26.20;44.50;;;;;;5075126;28;20466;-62
2022/08/01 12:25:59;;;;;;;4.63;3.20;;;26.10;44.00;;;;;;5072056;28;20753;-63
2022/08/01 12:28:25;;;;;;;3.10;2.13;;;26.10;43.90;;;;;;5080294;28;20216;-62
2022/08/01 12:30:51;;;;;;;3.43;2.40;;;26.10;43.80;;;;;;5071953;28;20475;-63
2022/08/01 12:33:19;;;;;;;2.63;2.40;;;26.20;44.00;;;;;;5079447;28;20166;-60
2022/08/01 12:35:44;;;;;;;4.77;2.40;;;26.30;43.90;;;;;;5080687;28;20185;-61
2022/08/01 12:38:19;;;;;;;3.77;2.67;;;26.40;43.60;;;;;;5079056;28;20505;-60
2022/08/01 12:40:47;;;;;;;2.17;2.07;;;26.40;43.70;;;;;;5084631;28;20194;-61
2022/08/01 12:43:18;;;;;;;4.27;2.93;;;26.40;44.20;;;;;;5072810;28;20972;-61
2022/08/01 12:45:46;;;;;;;2.70;2.30;;;26.40;44.30;;;;;;5078913;28;20811;-61
2022/08/01 12:48:16;;;;;;;9.77;2.60;;;26.30;43.50;;;;;;5082018;28;20408;-61
2022/08/01 12:50:47;;;;;;;3.10;2.60;;;26.30;43.30;;;;;;5069422;28;20590;-60
2022/08/01 12:53:14;;;;;;;3.40;2.60;;;26.30;43.00;;;;;;5067806;28;21098;-60
2022/08/01 12:55:55;;;;;;;2.63;2.10;;;26.40;43.00;;;;;;5075098;28;20436;-60